Time,TemperatureF,DewpointF,PressureIn,WindDirection,WindDirectionDegrees,WindSpeedMPH,WindSpeedGustMPH,Humidity,HourlyPrecipIn,Conditions,Clouds,dailyrainin,SoftwareType,DateUTC
2013-01-28 00:00:00,18.5,1.5,30.40,NNW,342,8.9,13.1,47,0.00,,,0.00,WUHU216PEETBRO,2013-01-28 05:00:00,
2013-01-28 00:02:00,18.8,1.4,30.40,NNW,337,4.7,13.1,46,0.00,,,0.00,WUHU216PEETBRO,2013-01-28 05:02:00,
2013-01-28 00:03:00,18.7,1.2,30.40,North,352,4.0,13.1,46,0.00,,,0.00,WUHU216PEETBRO,2013-01-28 05:03:00,
2013-01-28 00:08:00,18.9,1.3,30.40,North,349,4.1,12.3,46,0.00,,,0.00,WUHU216PEETBRO,2013-01-28 05:08:00,
2013-01-28 00:13:00,19.3,1.9,30.39,NNW,328,8.5,10.7,46,0.00,,,0.00,WUHU216PEETBRO,2013-01-28 05:13:00,
2013-01-28 00:18:00,19.1,1.8,30.39,North,2,0.9,9.9,46,0.00,,,0.00,WUHU216PEETBRO,2013-01-28 05:18:00,
2013-01-28 00:23:00,19.1,1.5,30.39,NNE,18,0.0,9.3,46,0.00,,,0.00,WUHU216PEETBRO,2013-01-28 05:23:00,
2013-01-28 00:28:00,19.3,1.5,30.39,NNW,328,4.6,11.3,45,0.00,,,0.00,WUHU216PEETBRO,2013-01-28 05:28:00,
2013-01-28 00:33:00,19.7,2.1,30.39,NW,306,2.4,11.3,46,0.00,,,0.00,WUHU216PEETBRO,2013-01-28 05:33:00,
2013-01-28 00:38:00,18.6,1.5,30.39,North,5,8.1,11.1,47,0.00,,,0.00,WUHU216PEETBRO,2013-01-28 05:38:00,
2013-01-28 00:43:00,18.9,1.9,30.39,North,352,0.2,9.7,47,0.00,,,0.00,WUHU216PEETBRO,2013-01-28 05:43:00,
2013-01-28 00:48:00,19.3,2.5,30.39,North,352,0.0,9.8,48,0.00,,,0.00,WUHU216PEETBRO,2013-01-28 05:48:00,
2013-01-28 00:53:00,19.1,2.5,30.39,NNW,341,1.3,9.8,48,0.00,,,0.00,WUHU216PEETBRO,2013-01-28 05:53:00,
2013-01-28 00:58:00,18.7,2.5,30.39,NW,317,2.6,5.7,49,0.00,,,0.00,WUHU216PEETBRO,2013-01-28 05:58:00,
2013-01-28 01:03:00,19.0,2.7,30.39,NW,323,6.9,10.6,49,0.00,,,0.00,WUHU216PEETBRO,2013-01-28 06:03:00,
2013-01-28 01:08:00,18.8,2.8,30.39,NNW,333,0.0,10.6,49,0.00,,,0.00,WUHU216PEETBRO,2013-01-28 06:08:00,
2013-01-28 01:13:00,19.0,2.9,30.39,NNW,333,0.0,8.8,49,0.00,,,0.00,WUHU216PEETBRO,2013-01-28 06:13:00,
2013-01-28 01:18:00,18.2,1.9,30.39,NNW,342,0.0,3.9,49,0.00,,,0.00,WUHU216PEETBRO,2013-01-28 06:18:00,
2013-01-28 01:23:00,17.9,1.9,30.39,NNW,342,0.0,3.9,49,0.00,,,0.00,WUHU216PEETBRO,2013-01-28 06:23:00,
2013-01-28 01:29:00,17.9,2.3,30.39,NNW,348,2.2,7.7,50,0.00,,,0.00,WUHU216PEETBRO,2013-01-28 06:29:00,
2013-01-28 01:34:00,17.9,2.5,30.39,NW,325,5.1,9.1,51,0.00,,,0.00,WUHU216PEETBRO,2013-01-28 06:34:00,
2013-01-28 01:40:00,17.8,2.7,30.39,NW,324,4.6,9.1,51,0.00,,,0.00,WUHU216PEETBRO,2013-01-28 06:40:00,
2013-01-28 01:45:00,18.0,3.1,30.40,NNW,334,5.7,7.3,52,0.00,,,0.00,WUHU216PEETBRO,2013-01-28 06:45:00,
2013-01-28 01:50:00,17.8,3.2,30.40,NW,306,0.0,7.4,52,0.00,,,0.00,WUHU216PEETBRO,2013-01-28 06:50:00,
2013-01-28 01:55:00,17.8,3.1,30.41,NW,325,6.0,7.4,52,0.00,,,0.00,WUHU216PEETBRO,2013-01-28 06:55:00,
2013-01-28 02:01:00,17.6,2.9,30.41,NW,318,0.0,7.0,52,0.00,,,0.00,WUHU216PEETBRO,2013-01-28 07:01:00,
2013-01-28 02:05:00,17.8,3.1,30.41,NNW,337,0.0,7.6,52,0.00,,,0.00,WUHU216PEETBRO,2013-01-28 07:05:00,
2013-01-28 02:11:00,17.9,3.2,30.41,NNW,333,0.0,7.6,52,0.00,,,0.00,WUHU216PEETBRO,2013-01-28 07:11:00,
2013-01-28 02:16:00,18.3,3.2,30.40,NW,323,2.5,7.2,51,0.00,,,0.00,WUHU216PEETBRO,2013-01-28 07:16:00,
2013-01-28 02:20:00,18.0,2.6,30.40,NNE,26,0.4,7.2,50,0.00,,,0.00,WUHU216PEETBRO,2013-01-28 07:20:00,
2013-01-28 02:25:00,17.6,2.0,30.40,NNW,345,6.3,8.9,50,0.00,,,0.00,WUHU216PEETBRO,2013-01-28 07:25:00,
2013-01-28 02:30:00,18.1,2.8,30.39,NW,323,0.0,8.9,51,0.00,,,0.00,WUHU216PEETBRO,2013-01-28 07:30:00,
2013-01-28 02:36:00,17.8,2.9,30.39,NW,323,3.4,7.0,52,0.00,,,0.00,WUHU216PEETBRO,2013-01-28 07:36:00,
2013-01-28 02:41:00,17.6,3.0,30.39,NNW,333,0.0,7.0,52,0.00,,,0.00,WUHU216PEETBRO,2013-01-28 07:41:00,
2013-01-28 02:46:00,16.7,2.6,30.39,NNW,333,0.0,4.3,53,0.00,,,0.00,WUHU216PEETBRO,2013-01-28 07:46:00,
2013-01-28 02:51:00,17.8,3.5,30.38,NNW,333,0.0,0.0,53,0.00,,,0.00,WUHU216PEETBRO,2013-01-28 07:51:00,
2013-01-28 02:56:00,17.7,3.4,30.38,NW,307,0.0,4.3,53,0.00,,,0.00,WUHU216PEETBRO,2013-01-28 07:56:00,
2013-01-28 03:01:00,17.7,3.0,30.37,NNW,347,0.0,6.9,52,0.00,,,0.00,WUHU216PEETBRO,2013-01-28 08:01:00,
2013-01-28 03:06:00,18.1,3.2,30.37,NNE,29,0.0,6.9,52,0.00,,,0.00,WUHU216PEETBRO,2013-01-28 08:06:00,
2013-01-28 03:11:00,17.9,3.3,30.37,NNE,29,0.0,5.3,52,0.00,,,0.00,WUHU216PEETBRO,2013-01-28 08:11:00,
2013-01-28 03:16:00,17.9,3.2,30.37,NNE,29,0.0,0.0,52,0.00,,,0.00,WUHU216PEETBRO,2013-01-28 08:16:00,
2013-01-28 03:21:00,17.7,3.6,30.37,NNE,29,0.0,0.0,53,0.00,,,0.00,WUHU216PEETBRO,2013-01-28 08:21:00,
2013-01-28 03:26:00,17.2,3.7,30.38,NNE,29,0.0,0.0,55,0.00,,,0.00,WUHU216PEETBRO,2013-01-28 08:26:00,
2013-01-28 03:30:00,18.1,4.7,30.38,NNE,29,0.0,0.0,55,0.00,,,0.00,WUHU216PEETBRO,2013-01-28 08:30:00,
2013-01-28 03:36:00,17.8,4.8,30.38,NNE,29,0.0,0.0,56,0.00,,,0.00,WUHU216PEETBRO,2013-01-28 08:36:00,
2013-01-28 03:41:00,17.6,4.4,30.38,NNE,29,0.0,0.0,56,0.00,,,0.00,WUHU216PEETBRO,2013-01-28 08:41:00,
2013-01-28 03:46:00,17.0,3.8,30.37,NNE,29,0.0,0.0,55,0.00,,,0.00,WUHU216PEETBRO,2013-01-28 08:46:00,
2013-01-28 03:51:00,16.5,3.0,30.37,NE,42,0.0,7.5,55,0.00,,,0.00,WUHU216PEETBRO,2013-01-28 08:51:00,
2013-01-28 03:56:00,16.5,3.2,30.37,NE,42,0.0,7.5,55,0.00,,,0.00,WUHU216PEETBRO,2013-01-28 08:56:00,
2013-01-28 04:01:00,15.9,3.2,30.37,NE,42,0.0,0.0,57,0.00,,,0.00,WUHU216PEETBRO,2013-01-28 09:01:00,
2013-01-28 04:06:00,15.6,3.6,30.37,NE,42,0.0,0.0,59,0.00,,,0.00,WUHU216PEETBRO,2013-01-28 09:06:00,
2013-01-28 04:11:00,15.7,4.3,30.37,NE,42,0.0,0.0,60,0.00,,,0.00,WUHU216PEETBRO,2013-01-28 09:11:00,
2013-01-28 04:16:00,15.2,4.0,30.37,NE,42,0.0,0.0,61,0.00,,,0.00,WUHU216PEETBRO,2013-01-28 09:16:00,
2013-01-28 04:21:00,14.4,3.5,30.37,NE,42,0.0,0.0,61,0.00,,,0.00,WUHU216PEETBRO,2013-01-28 09:21:00,
2013-01-28 04:26:00,14.8,4.0,30.37,NE,42,0.0,0.0,61,0.00,,,0.00,WUHU216PEETBRO,2013-01-28 09:26:00,
2013-01-28 04:31:00,13.8,3.1,30.37,NE,42,0.0,0.0,62,0.00,,,0.00,WUHU216PEETBRO,2013-01-28 09:31:00,
2013-01-28 04:36:00,13.5,3.5,30.37,NE,42,0.0,0.0,64,0.00,,,0.00,WUHU216PEETBRO,2013-01-28 09:36:00,
2013-01-28 04:41:00,14.2,4.3,30.36,NE,42,0.0,0.0,64,0.00,,,0.00,WUHU216PEETBRO,2013-01-28 09:41:00,
2013-01-28 04:46:00,14.3,4.8,30.36,NE,42,0.0,0.0,65,0.00,,,0.00,WUHU216PEETBRO,2013-01-28 09:46:00,
2013-01-28 04:51:00,14.2,5.1,30.36,NE,42,0.0,0.0,66,0.00,,,0.00,WUHU216PEETBRO,2013-01-28 09:51:00,
2013-01-28 04:56:00,14.1,4.8,30.36,NE,42,0.0,0.0,66,0.00,,,0.00,WUHU216PEETBRO,2013-01-28 09:56:00,
2013-01-28 05:01:00,14.4,5.3,30.36,NE,42,0.0,0.0,67,0.00,,,0.00,WUHU216PEETBRO,2013-01-28 10:01:00,
2013-01-28 05:06:00,13.2,4.3,30.36,NE,42,0.0,0.0,67,0.00,,,0.00,WUHU216PEETBRO,2013-01-28 10:06:00,
2013-01-28 05:11:00,14.1,5.4,30.36,NE,42,0.0,0.0,68,0.00,,,0.00,WUHU216PEETBRO,2013-01-28 10:11:00,
2013-01-28 05:16:00,13.0,4.5,30.36,NE,42,0.0,0.0,68,0.00,,,0.00,WUHU216PEETBRO,2013-01-28 10:16:00,
2013-01-28 05:21:00,13.4,4.8,30.36,NE,42,0.0,0.0,68,0.00,,,0.00,WUHU216PEETBRO,2013-01-28 10:21:00,
2013-01-28 05:26:00,13.7,5.0,30.36,NE,42,0.0,0.0,68,0.00,,,0.00,WUHU216PEETBRO,2013-01-28 10:26:00,
2013-01-28 05:31:00,13.0,4.3,30.36,NE,42,0.0,0.0,67,0.00,,,0.00,WUHU216PEETBRO,2013-01-28 10:31:00,
2013-01-28 05:36:00,12.9,4.6,30.36,NE,42,0.0,0.0,69,0.00,,,0.00,WUHU216PEETBRO,2013-01-28 10:36:00,
2013-01-28 05:41:00,13.0,4.7,30.36,NE,42,0.0,0.0,69,0.00,,,0.00,WUHU216PEETBRO,2013-01-28 10:41:00,
2013-01-28 05:46:00,13.1,4.8,30.36,NE,42,0.0,0.0,69,0.00,,,0.00,WUHU216PEETBRO,2013-01-28 10:46:00,
2013-01-28 05:51:00,12.1,3.8,30.36,NE,42,0.0,0.0,69,0.00,,,0.00,WUHU216PEETBRO,2013-01-28 10:51:00,
2013-01-28 05:56:00,12.5,4.4,30.36,NE,42,0.0,0.0,69,0.00,,,0.00,WUHU216PEETBRO,2013-01-28 10:56:00,
2013-01-28 06:01:00,12.8,4.8,30.36,NE,42,0.0,0.0,70,0.00,,,0.00,WUHU216PEETBRO,2013-01-28 11:01:00,
2013-01-28 06:06:00,12.6,5.0,30.37,NE,42,0.0,0.0,71,0.00,,,0.00,WUHU216PEETBRO,2013-01-28 11:06:00,
2013-01-28 06:11:00,12.6,4.9,30.37,NE,42,0.0,0.0,71,0.00,,,0.00,WUHU216PEETBRO,2013-01-28 11:11:00,
2013-01-28 06:16:00,11.6,4.1,30.37,NE,42,0.0,0.0,71,0.00,,,0.00,WUHU216PEETBRO,2013-01-28 11:16:00,
2013-01-28 06:21:00,11.6,4.1,30.37,NE,42,0.0,0.0,71,0.00,,,0.00,WUHU216PEETBRO,2013-01-28 11:21:00,
2013-01-28 06:26:00,11.7,4.3,30.37,NE,42,0.0,0.0,72,0.00,,,0.00,WUHU216PEETBRO,2013-01-28 11:26:00,
2013-01-28 06:31:00,11.8,4.5,30.37,NE,42,0.0,0.0,72,0.00,,,0.00,WUHU216PEETBRO,2013-01-28 11:31:00,
2013-01-28 06:36:00,12.0,5.1,30.37,NE,42,0.0,0.0,73,0.00,,,0.00,WUHU216PEETBRO,2013-01-28 11:36:00,
2013-01-28 06:41:00,12.3,5.4,30.37,NE,42,0.0,0.0,73,0.00,,,0.00,WUHU216PEETBRO,2013-01-28 11:41:00,
2013-01-28 06:46:00,12.3,5.4,30.36,NE,42,0.0,0.0,73,0.00,,,0.00,WUHU216PEETBRO,2013-01-28 11:46:00,
2013-01-28 06:51:00,12.9,5.9,30.36,NE,42,0.0,0.0,73,0.00,,,0.00,WUHU216PEETBRO,2013-01-28 11:51:00,
2013-01-28 06:56:00,12.8,5.7,30.36,NE,42,0.0,0.0,73,0.00,,,0.00,WUHU216PEETBRO,2013-01-28 11:56:00,
2013-01-28 07:01:00,13.0,5.9,30.36,NE,42,0.0,0.0,73,0.00,,,0.00,WUHU216PEETBRO,2013-01-28 12:01:00,
2013-01-28 07:06:00,13.6,6.5,30.36,NE,42,0.0,0.0,73,0.00,,,0.00,WUHU216PEETBRO,2013-01-28 12:06:00,
2013-01-28 07:11:00,13.5,6.3,30.36,NE,42,0.0,0.0,72,0.00,,,0.00,WUHU216PEETBRO,2013-01-28 12:11:00,
2013-01-28 07:16:00,13.6,6.4,30.36,NE,42,0.0,0.0,73,0.00,,,0.00,WUHU216PEETBRO,2013-01-28 12:16:00,
2013-01-28 07:21:00,14.6,7.4,30.36,NE,42,0.0,0.0,72,0.00,,,0.00,WUHU216PEETBRO,2013-01-28 12:21:00,
2013-01-28 07:26:00,14.6,7.3,30.36,NE,42,0.0,0.0,72,0.00,,,0.00,WUHU216PEETBRO,2013-01-28 12:26:00,
2013-01-28 07:31:00,14.3,6.9,30.36,NE,42,0.0,0.0,72,0.00,,,0.00,WUHU216PEETBRO,2013-01-28 12:31:00,
2013-01-28 07:36:00,15.1,7.6,30.36,NE,42,0.0,0.0,72,0.00,,,0.00,WUHU216PEETBRO,2013-01-28 12:36:00,
2013-01-28 07:41:00,15.2,7.6,30.36,NE,42,0.0,0.0,71,0.00,,,0.00,WUHU216PEETBRO,2013-01-28 12:41:00,
2013-01-28 07:46:00,15.7,8.3,30.36,NE,42,0.0,0.0,72,0.00,,,0.00,WUHU216PEETBRO,2013-01-28 12:46:00,
2013-01-28 07:51:00,15.2,7.9,30.37,NE,42,0.0,0.0,72,0.00,,,0.00,WUHU216PEETBRO,2013-01-28 12:51:00,
2013-01-28 07:56:00,16.5,8.9,30.37,NE,42,0.0,0.0,71,0.00,,,0.00,WUHU216PEETBRO,2013-01-28 12:56:00,
2013-01-28 08:01:00,16.5,8.2,30.36,NE,42,0.0,0.0,69,0.00,,,0.00,WUHU216PEETBRO,2013-01-28 13:01:00,
2013-01-28 08:06:00,17.3,7.8,30.36,NE,42,0.0,0.0,66,0.00,,,0.00,WUHU216PEETBRO,2013-01-28 13:06:00,
2013-01-28 08:11:00,17.7,7.1,30.36,NE,42,0.0,0.0,62,0.00,,,0.00,WUHU216PEETBRO,2013-01-28 13:11:00,
2013-01-28 08:16:00,17.9,7.2,30.37,NE,42,0.0,0.0,62,0.00,,,0.00,WUHU216PEETBRO,2013-01-28 13:16:00,
2013-01-28 08:21:00,18.4,7.6,30.37,NE,42,0.0,0.0,62,0.00,,,0.00,WUHU216PEETBRO,2013-01-28 13:21:00,
2013-01-28 08:26:00,18.7,7.5,30.36,NE,42,0.0,0.0,61,0.00,,,0.00,WUHU216PEETBRO,2013-01-28 13:26:00,
2013-01-28 08:31:00,19.0,7.5,30.36,NE,42,0.0,0.0,60,0.00,,,0.00,WUHU216PEETBRO,2013-01-28 13:31:00,
2013-01-28 08:36:00,19.5,7.7,30.36,NE,42,0.0,0.0,60,0.00,,,0.00,WUHU216PEETBRO,2013-01-28 13:36:00,
2013-01-28 08:41:00,19.5,7.8,30.36,NE,42,0.0,0.0,60,0.00,,,0.00,WUHU216PEETBRO,2013-01-28 13:41:00,
2013-01-28 08:46:00,19.6,7.2,30.36,NNW,335,0.0,4.0,58,0.00,,,0.00,WUHU216PEETBRO,2013-01-28 13:46:00,
2013-01-28 08:51:00,20.0,7.3,30.36,NNW,335,0.0,4.0,57,0.00,,,0.00,WUHU216PEETBRO,2013-01-28 13:51:00,
2013-01-28 08:56:00,20.3,7.2,30.36,NNW,335,0.0,0.0,56,0.00,,,0.00,WUHU216PEETBRO,2013-01-28 13:56:00,
2013-01-28 09:01:00,20.9,7.0,30.36,NNW,335,0.0,0.0,54,0.00,,,0.00,WUHU216PEETBRO,2013-01-28 14:01:00,
2013-01-28 09:06:00,20.8,6.8,30.36,NNW,335,0.0,0.0,54,0.00,,,0.00,WUHU216PEETBRO,2013-01-28 14:06:00,
2013-01-28 09:11:00,21.7,7.6,30.36,NNW,335,0.0,0.0,54,0.00,,,0.00,WUHU216PEETBRO,2013-01-28 14:11:00,
2013-01-28 09:16:00,21.6,7.3,30.36,NNW,335,0.0,0.0,54,0.00,,,0.00,WUHU216PEETBRO,2013-01-28 14:16:00,
2013-01-28 09:21:00,21.6,6.4,30.36,NNW,335,0.0,0.0,51,0.00,,,0.00,WUHU216PEETBRO,2013-01-28 14:21:00,
2013-01-28 09:26:00,22.7,7.3,30.36,NNW,335,0.0,0.0,51,0.00,,,0.00,WUHU216PEETBRO,2013-01-28 14:26:00,
2013-01-28 09:31:00,23.2,7.9,30.37,NNW,335,0.0,0.0,51,0.00,,,0.00,WUHU216PEETBRO,2013-01-28 14:31:00,
2013-01-28 09:36:00,22.7,6.2,30.36,North,351,0.0,2.4,49,0.00,,,0.00,WUHU216PEETBRO,2013-01-28 14:36:00,
2013-01-28 09:41:00,23.7,7.0,30.36,North,351,0.0,2.4,48,0.00,,,0.00,WUHU216PEETBRO,2013-01-28 14:41:00,
2013-01-28 09:46:00,23.9,7.0,30.36,North,351,0.0,0.0,48,0.00,,,0.00,WUHU216PEETBRO,2013-01-28 14:46:00,
2013-01-28 09:51:00,24.4,7.6,30.36,North,351,0.0,0.0,48,0.00,,,0.00,WUHU216PEETBRO,2013-01-28 14:51:00,
2013-01-28 09:56:00,24.5,6.4,30.35,NNE,29,0.0,4.2,46,0.00,,,0.00,WUHU216PEETBRO,2013-01-28 14:56:00,
2013-01-28 10:01:00,24.6,6.7,30.35,NNE,29,0.0,4.2,46,0.00,,,0.00,WUHU216PEETBRO,2013-01-28 15:01:00,
2013-01-28 10:06:00,25.0,7.2,30.35,NNE,29,0.0,0.0,47,0.00,,,0.00,WUHU216PEETBRO,2013-01-28 15:06:00,
2013-01-28 10:11:00,25.0,6.6,30.35,North,5,0.0,3.5,45,0.00,,,0.00,WUHU216PEETBRO,2013-01-28 15:11:00,
2013-01-28 10:16:00,25.3,6.3,30.35,North,5,0.0,3.5,44,0.00,,,0.00,WUHU216PEETBRO,2013-01-28 15:16:00,
2013-01-28 10:21:00,26.0,6.5,30.35,NE,39,4.6,4.6,43,0.00,,,0.00,WUHU216PEETBRO,2013-01-28 15:21:00,
2013-01-28 10:26:00,25.9,6.8,30.35,NE,45,0.0,4.6,44,0.00,,,0.00,WUHU216PEETBRO,2013-01-28 15:26:00,
2013-01-28 10:31:00,25.7,5.6,30.35,NNE,25,0.0,5.0,42,0.00,,,0.00,WUHU216PEETBRO,2013-01-28 15:31:00,
2013-01-28 10:36:00,25.9,6.2,30.34,NNW,334,0.0,5.0,43,0.00,,,0.00,WUHU216PEETBRO,2013-01-28 15:36:00,
2013-01-28 10:41:00,26.4,7.0,30.34,NNW,334,0.0,4.1,44,0.00,,,0.00,WUHU216PEETBRO,2013-01-28 15:41:00,
2013-01-28 10:46:00,26.7,7.3,30.33,NNW,334,0.0,0.0,44,0.00,,,0.00,WUHU216PEETBRO,2013-01-28 15:46:00,
2013-01-28 10:51:00,27.3,7.9,30.33,NNW,334,0.0,0.0,44,0.00,,,0.00,WUHU216PEETBRO,2013-01-28 15:51:00,
2013-01-28 10:56:00,27.2,7.4,30.32,NNW,334,0.0,0.0,43,0.00,,,0.00,WUHU216PEETBRO,2013-01-28 15:56:00,
2013-01-28 11:01:00,27.5,7.9,30.32,NNW,334,0.0,0.0,43,0.00,,,0.00,WUHU216PEETBRO,2013-01-28 16:01:00,
2013-01-28 11:06:00,27.8,8.0,30.32,NNW,334,0.0,0.0,43,0.00,,,0.00,WUHU216PEETBRO,2013-01-28 16:06:00,
2013-01-28 11:11:00,28.1,7.9,30.32,NNW,334,0.0,0.0,42,0.00,,,0.00,WUHU216PEETBRO,2013-01-28 16:11:00,
2013-01-28 11:16:00,28.0,7.5,30.31,NNW,334,0.0,0.0,42,0.00,,,0.00,WUHU216PEETBRO,2013-01-28 16:16:00,
2013-01-28 11:21:00,28.3,7.8,30.31,NNW,334,0.0,0.0,42,0.00,,,0.00,WUHU216PEETBRO,2013-01-28 16:21:00,
2013-01-28 11:26:00,28.2,7.5,30.31,NNW,334,0.0,0.0,41,0.00,,,0.00,WUHU216PEETBRO,2013-01-28 16:26:00,
2013-01-28 11:31:00,28.1,7.9,30.30,NNW,334,0.0,0.0,42,0.00,,,0.00,WUHU216PEETBRO,2013-01-28 16:31:00,
2013-01-28 11:36:00,28.5,7.6,30.30,NNW,334,0.0,0.0,41,0.00,,,0.00,WUHU216PEETBRO,2013-01-28 16:36:00,
2013-01-28 11:41:00,28.8,7.3,30.29,NNW,334,0.0,0.0,40,0.00,,,0.00,WUHU216PEETBRO,2013-01-28 16:41:00,
2013-01-28 11:46:00,28.3,7.1,30.29,NNW,334,0.0,0.0,40,0.00,,,0.00,WUHU216PEETBRO,2013-01-28 16:46:00,
2013-01-28 11:51:00,28.9,7.9,30.28,NNW,334,0.0,0.0,41,0.00,,,0.00,WUHU216PEETBRO,2013-01-28 16:51:00,
2013-01-28 11:56:00,28.5,7.3,30.28,NNW,334,0.0,0.0,40,0.00,,,0.00,WUHU216PEETBRO,2013-01-28 16:56:00,
2013-01-28 12:01:00,28.9,7.9,30.27,NNW,334,0.0,0.0,41,0.00,,,0.00,WUHU216PEETBRO,2013-01-28 17:01:00,
2013-01-28 12:06:00,29.4,8.9,30.26,NNW,334,0.0,0.0,42,0.00,,,0.00,WUHU216PEETBRO,2013-01-28 17:06:00,
2013-01-28 12:11:00,29.3,8.6,30.26,NNW,334,0.0,0.0,42,0.00,,,0.00,WUHU216PEETBRO,2013-01-28 17:11:00,
2013-01-28 12:16:00,29.2,7.8,30.26,NNW,334,0.0,0.0,40,0.00,,,0.00,WUHU216PEETBRO,2013-01-28 17:16:00,
2013-01-28 12:21:00,29.1,8.5,30.26,NNW,334,0.0,0.0,42,0.00,,,0.00,WUHU216PEETBRO,2013-01-28 17:21:00,
2013-01-28 12:26:00,29.4,8.0,30.27,NNW,334,0.0,0.0,40,0.00,,,0.00,WUHU216PEETBRO,2013-01-28 17:26:00,
2013-01-28 12:31:00,29.3,8.1,30.27,NNW,334,0.0,0.0,41,0.00,,,0.00,WUHU216PEETBRO,2013-01-28 17:31:00,
2013-01-28 12:36:00,29.3,8.7,30.27,NNW,334,0.0,0.0,42,0.00,,,0.00,WUHU216PEETBRO,2013-01-28 17:36:00,
2013-01-28 12:41:00,29.1,8.1,30.26,NNW,334,0.0,0.0,41,0.00,,,0.00,WUHU216PEETBRO,2013-01-28 17:41:00,
2013-01-28 12:46:00,28.8,8.9,30.26,NNW,334,0.0,0.0,43,0.00,,,0.00,WUHU216PEETBRO,2013-01-28 17:46:00,
2013-01-28 12:51:00,28.7,11.1,30.25,North,11,1.4,5.2,48,0.00,,,0.00,WUHU216PEETBRO,2013-01-28 17:51:00,
2013-01-28 12:56:00,28.0,12.8,30.25,North,357,0.3,9.3,53,0.00,,,0.00,WUHU216PEETBRO,2013-01-28 17:56:00,
2013-01-28 13:01:00,28.2,13.4,30.24,North,357,0.0,9.3,54,0.00,,,0.00,WUHU216PEETBRO,2013-01-28 18:01:00,
2013-01-28 13:06:00,28.2,15.1,30.24,WNW,301,0.0,7.6,58,0.00,,,0.00,WUHU216PEETBRO,2013-01-28 18:06:00,
2013-01-28 13:11:00,28.1,14.8,30.23,WNW,301,0.0,7.6,57,0.00,,,0.00,WUHU216PEETBRO,2013-01-28 18:11:00,
2013-01-28 13:16:00,27.9,15.5,30.22,NW,317,0.0,3.8,59,0.00,,,0.00,WUHU216PEETBRO,2013-01-28 18:16:00,
2013-01-28 13:21:00,28.4,17.0,30.22,NW,317,0.0,3.8,62,0.00,,,0.00,WUHU216PEETBRO,2013-01-28 18:21:00,
2013-01-28 13:26:00,28.1,16.8,30.21,NW,317,0.0,0.0,62,0.00,,,0.00,WUHU216PEETBRO,2013-01-28 18:26:00,
2013-01-28 13:31:00,27.9,17.2,30.22,NW,317,0.0,0.0,64,0.00,,,0.00,WUHU216PEETBRO,2013-01-28 18:31:00,
2013-01-28 13:36:00,27.2,18.6,30.21,NW,321,0.0,5.2,70,0.00,,,0.00,WUHU216PEETBRO,2013-01-28 18:36:00,
2013-01-28 13:41:00,26.9,18.5,30.21,NW,321,0.0,5.2,70,0.00,,,0.00,WUHU216PEETBRO,2013-01-28 18:41:00,
2013-01-28 13:46:00,26.6,20.4,30.20,NW,321,0.0,0.0,77,0.00,,,0.00,WUHU216PEETBRO,2013-01-28 18:46:00,
2013-01-28 13:51:00,26.6,20.9,30.20,NW,325,0.0,4.0,79,0.00,,,0.00,WUHU216PEETBRO,2013-01-28 18:51:00,
2013-01-28 13:56:00,26.0,20.5,30.19,NW,325,0.0,4.0,80,0.00,,,0.00,WUHU216PEETBRO,2013-01-28 18:56:00,
2013-01-28 14:01:00,26.6,21.3,30.19,NW,325,0.0,0.0,80,0.00,,,0.00,WUHU216PEETBRO,2013-01-28 19:01:00,
2013-01-28 14:06:00,26.8,21.3,30.19,NW,325,0.0,0.0,80,0.00,,,0.00,WUHU216PEETBRO,2013-01-28 19:06:00,
2013-01-28 14:11:00,27.1,21.6,30.18,NW,325,0.0,0.0,80,0.00,,,0.00,WUHU216PEETBRO,2013-01-28 19:11:00,
2013-01-28 14:16:00,27.0,21.4,30.18,NW,325,0.0,0.0,79,0.00,,,0.00,WUHU216PEETBRO,2013-01-28 19:16:00,
2013-01-28 14:21:00,27.4,21.6,30.18,SE,143,6.5,6.5,79,0.00,,,0.00,WUHU216PEETBRO,2013-01-28 19:21:00,
2013-01-28 14:26:00,27.2,21.2,30.18,SE,128,0.0,6.6,78,0.00,,,0.00,WUHU216PEETBRO,2013-01-28 19:26:00,
2013-01-28 14:31:00,27.0,21.1,30.18,East,83,4.4,6.6,78,0.00,,,0.00,WUHU216PEETBRO,2013-01-28 19:31:00,
2013-01-28 14:36:00,26.6,20.9,30.18,SW,214,0.8,6.5,79,0.00,,,0.00,WUHU216PEETBRO,2013-01-28 19:36:00,
2013-01-28 14:41:00,26.7,21.2,30.17,South,184,0.0,5.0,80,0.00,,,0.00,WUHU216PEETBRO,2013-01-28 19:41:00,
2013-01-28 14:46:00,26.6,21.2,30.17,SE,145,1.6,6.6,80,0.00,,,0.00,WUHU216PEETBRO,2013-01-28 19:46:00,
2013-01-28 14:51:00,26.6,21.2,30.16,SSE,148,3.4,6.6,80,0.00,,,0.00,WUHU216PEETBRO,2013-01-28 19:51:00,
2013-01-28 14:57:00,26.6,21.2,30.16,South,180,2.5,6.5,80,0.00,,,0.00,WUHU216PEETBRO,2013-01-28 19:57:00,
2013-01-28 15:02:00,26.1,20.7,30.16,WSW,245,0.4,6.3,80,0.00,,,0.00,WUHU216PEETBRO,2013-01-28 20:02:00,
2013-01-28 15:07:00,26.2,20.6,30.16,ESE,115,0.0,6.3,79,0.00,,,0.00,WUHU216PEETBRO,2013-01-28 20:07:00,
2013-01-28 15:11:00,26.3,20.7,30.16,East,87,5.2,5.2,79,0.00,,,0.00,WUHU216PEETBRO,2013-01-28 20:11:00,
2013-01-28 15:16:00,26.4,21.0,30.16,ENE,77,4.3,5.7,80,0.00,,,0.00,WUHU216PEETBRO,2013-01-28 20:16:00,
2013-01-28 15:21:00,26.1,20.8,30.17,NE,49,0.0,5.7,80,0.00,,,0.00,WUHU216PEETBRO,2013-01-28 20:21:00,
2013-01-28 15:26:00,26.1,20.9,30.17,ESE,105,2.1,5.2,81,0.00,,,0.00,WUHU216PEETBRO,2013-01-28 20:26:00,
2013-01-28 15:31:00,25.9,20.8,30.17,ESE,107,3.5,5.2,81,0.00,,,0.00,WUHU216PEETBRO,2013-01-28 20:31:00,
2013-01-28 15:37:00,26.2,21.1,30.17,South,187,0.0,4.9,81,0.00,,,0.00,WUHU216PEETBRO,2013-01-28 20:37:00,
2013-01-28 15:42:00,26.0,21.0,30.16,ESE,117,0.0,4.1,81,0.00,,,0.00,WUHU216PEETBRO,2013-01-28 20:42:00,
2013-01-28 15:47:00,25.3,20.8,30.16,ESE,117,0.0,3.9,83,0.00,,,0.00,WUHU216PEETBRO,2013-01-28 20:47:00,
2013-01-28 15:52:00,25.8,21.6,30.15,SE,146,2.9,4.7,84,0.00,,,0.00,WUHU216PEETBRO,2013-01-28 20:52:00,
2013-01-28 15:57:00,24.8,21.0,30.15,East,93,3.4,5.5,85,0.00,,,0.00,WUHU216PEETBRO,2013-01-28 20:57:00,
2013-01-28 16:02:00,25.3,21.7,30.15,South,174,4.9,5.7,86,0.00,,,0.00,WUHU216PEETBRO,2013-01-28 21:02:00,
2013-01-28 16:07:00,25.1,21.8,30.15,SE,124,5.4,8.9,87,0.00,,,0.00,WUHU216PEETBRO,2013-01-28 21:07:00,
2013-01-28 16:12:00,24.3,21.2,30.15,SE,133,2.2,8.9,88,0.00,,,0.00,WUHU216PEETBRO,2013-01-28 21:12:00,
2013-01-28 16:17:00,24.7,21.8,30.15,SE,138,0.0,6.5,89,0.00,,,0.00,WUHU216PEETBRO,2013-01-28 21:17:00,
2013-01-28 16:22:00,24.4,21.9,30.14,South,172,1.4,3.6,90,0.00,,,0.00,WUHU216PEETBRO,2013-01-28 21:22:00,
2013-01-28 16:27:00,24.6,22.3,30.14,SSE,150,0.0,3.6,91,0.00,,,0.00,WUHU216PEETBRO,2013-01-28 21:27:00,
2013-01-28 16:32:00,24.2,22.1,30.14,SSE,150,0.0,2.5,92,0.00,,,0.00,WUHU216PEETBRO,2013-01-28 21:32:00,
2013-01-28 16:39:00,23.7,21.9,30.13,South,170,0.0,5.5,93,0.00,,,0.00,WUHU216PEETBRO,2013-01-28 21:39:00,
2013-01-28 16:44:00,24.1,22.4,30.13,South,170,0.0,4.5,94,0.00,,,0.00,WUHU216PEETBRO,2013-01-28 21:44:00,
2013-01-28 16:49:00,24.1,22.4,30.13,South,170,0.0,0.0,93,0.00,,,0.00,WUHU216PEETBRO,2013-01-28 21:49:00,
2013-01-28 16:54:00,23.8,22.4,30.13,ENE,69,0.0,5.8,94,0.00,,,0.00,WUHU216PEETBRO,2013-01-28 21:54:00,
2013-01-28 16:59:00,23.7,22.3,30.13,ENE,69,0.0,5.8,95,0.00,,,0.00,WUHU216PEETBRO,2013-01-28 21:59:00,
2013-01-28 17:04:00,23.6,22.3,30.12,ENE,69,0.0,0.0,95,0.00,,,0.00,WUHU216PEETBRO,2013-01-28 22:04:00,
2013-01-28 17:09:00,23.3,21.8,30.12,ENE,69,0.0,0.0,94,0.00,,,0.00,WUHU216PEETBRO,2013-01-28 22:09:00,
2013-01-28 17:14:00,23.6,22.2,30.11,ENE,69,0.0,0.0,95,0.00,,,0.00,WUHU216PEETBRO,2013-01-28 22:14:00,
2013-01-28 17:19:00,23.4,22.2,30.11,SE,125,0.0,7.5,95,0.00,,,0.00,WUHU216PEETBRO,2013-01-28 22:19:00,
2013-01-28 17:24:00,23.7,22.5,30.11,East,100,0.0,7.5,95,0.00,,,0.00,WUHU216PEETBRO,2013-01-28 22:24:00,
2013-01-28 17:29:00,23.6,22.4,30.11,East,100,0.0,3.6,95,0.00,,,0.00,WUHU216PEETBRO,2013-01-28 22:29:00,
2013-01-28 17:34:00,23.2,22.0,30.09,SE,143,4.6,4.6,95,0.00,,,0.00,WUHU216PEETBRO,2013-01-28 22:34:00,
2013-01-28 17:39:00,23.3,22.2,30.09,SE,145,4.2,5.4,96,0.00,,,0.00,WUHU216PEETBRO,2013-01-28 22:39:00,
2013-01-28 17:44:00,23.4,22.3,30.09,ESE,105,0.0,5.4,96,0.00,,,0.00,WUHU216PEETBRO,2013-01-28 22:44:00,
2013-01-28 17:49:00,23.4,22.3,30.10,ESE,105,0.0,3.7,96,0.00,,,0.00,WUHU216PEETBRO,2013-01-28 22:49:00,
2013-01-28 17:54:00,23.4,22.3,30.10,ESE,105,0.0,0.0,96,0.00,,,0.00,WUHU216PEETBRO,2013-01-28 22:54:00,
2013-01-28 17:59:00,23.2,22.1,30.09,SSE,153,1.9,4.2,96,0.00,,,0.00,WUHU216PEETBRO,2013-01-28 22:59:00,
2013-01-28 18:04:00,23.2,22.1,30.09,SE,131,2.7,5.2,96,0.00,,,0.00,WUHU216PEETBRO,2013-01-28 23:04:00,
2013-01-28 18:09:00,23.8,22.7,30.09,ESE,107,0.0,5.2,96,0.00,,,0.00,WUHU216PEETBRO,2013-01-28 23:09:00,
2013-01-28 18:14:00,24.0,23.0,30.09,ESE,107,0.0,4.9,96,0.00,,,0.00,WUHU216PEETBRO,2013-01-28 23:14:00,
2013-01-28 18:19:00,23.7,22.7,30.09,ESE,107,0.0,0.0,96,0.00,,,0.00,WUHU216PEETBRO,2013-01-28 23:19:00,
2013-01-28 18:24:00,23.4,22.4,30.08,ESE,107,0.0,0.0,96,0.00,,,0.00,WUHU216PEETBRO,2013-01-28 23:24:00,
2013-01-28 18:29:00,23.7,22.7,30.09,ESE,107,0.0,0.0,96,0.00,,,0.00,WUHU216PEETBRO,2013-01-28 23:29:00,
2013-01-28 18:34:00,23.5,22.5,30.09,NE,50,0.0,4.0,96,0.00,,,0.00,WUHU216PEETBRO,2013-01-28 23:34:00,
2013-01-28 18:39:00,23.6,22.6,30.09,NE,42,0.0,4.0,96,0.00,,,0.00,WUHU216PEETBRO,2013-01-28 23:39:00,
2013-01-28 18:44:00,23.4,22.4,30.09,NE,50,0.0,2.7,96,0.00,,,0.00,WUHU216PEETBRO,2013-01-28 23:44:00,
2013-01-28 18:49:00,23.6,22.6,30.09,NE,50,0.0,2.5,96,0.00,,,0.00,WUHU216PEETBRO,2013-01-28 23:49:00,
2013-01-28 18:54:00,23.3,22.3,30.09,ENE,64,3.1,3.1,96,0.00,,,0.00,WUHU216PEETBRO,2013-01-28 23:54:00,
2013-01-28 18:59:00,23.6,22.6,30.08,NNE,32,0.0,3.4,96,0.00,,,0.00,WUHU216PEETBRO,2013-01-28 23:59:00,
2013-01-28 19:04:00,23.6,22.6,30.07,NNE,32,0.0,3.4,96,0.00,,,0.00,WUHU216PEETBRO,2013-01-29 00:04:00,
2013-01-28 19:09:00,23.6,22.6,30.08,East,91,0.0,3.0,96,0.00,,,0.00,WUHU216PEETBRO,2013-01-29 00:09:00,
2013-01-28 19:14:00,23.8,22.9,30.09,North,11,2.7,3.0,96,0.00,,,0.00,WUHU216PEETBRO,2013-01-29 00:14:00,
2013-01-28 19:19:00,23.8,22.9,30.09,NNE,25,2.1,4.7,96,0.00,,,0.00,WUHU216PEETBRO,2013-01-29 00:19:00,
2013-01-28 19:24:00,23.7,22.7,30.08,NNE,29,1.0,4.7,96,0.00,,,0.00,WUHU216PEETBRO,2013-01-29 00:24:00,
2013-01-28 19:29:00,23.6,22.7,30.09,NNE,12,0.9,4.0,96,0.00,,,0.00,WUHU216PEETBRO,2013-01-29 00:29:00,
2013-01-28 19:34:00,23.2,22.3,30.09,North,6,3.2,3.9,96,0.00,,,0.00,WUHU216PEETBRO,2013-01-29 00:34:00,
2013-01-28 19:39:00,23.5,22.6,30.08,NNE,32,0.9,3.9,97,0.00,,,0.00,WUHU216PEETBRO,2013-01-29 00:39:00,
2013-01-28 19:44:00,23.2,22.3,30.07,SE,128,0.0,3.2,96,0.00,,,0.00,WUHU216PEETBRO,2013-01-29 00:44:00,
2013-01-28 19:49:00,23.6,22.7,30.07,SE,128,0.0,3.1,96,0.00,,,0.00,WUHU216PEETBRO,2013-01-29 00:49:00,
2013-01-28 19:54:00,23.5,22.6,30.06,SE,128,0.0,0.0,97,0.00,,,0.00,WUHU216PEETBRO,2013-01-29 00:54:00,
2013-01-28 19:59:00,23.4,22.5,30.06,SE,128,0.0,0.0,97,0.00,,,0.00,WUHU216PEETBRO,2013-01-29 00:59:00,
2013-01-28 20:04:00,23.7,22.8,30.06,SE,128,0.0,0.0,96,0.00,,,0.00,WUHU216PEETBRO,2013-01-29 01:04:00,
2013-01-28 20:09:00,23.8,22.8,30.06,SE,128,0.0,0.0,96,0.00,,,0.00,WUHU216PEETBRO,2013-01-29 01:09:00,
2013-01-28 20:14:00,23.1,22.2,30.05,SE,128,0.0,0.0,97,0.00,,,0.00,WUHU216PEETBRO,2013-01-29 01:14:00,
2013-01-28 20:19:00,23.2,22.3,30.05,SE,128,0.0,0.0,97,0.00,,,0.00,WUHU216PEETBRO,2013-01-29 01:19:00,
2013-01-28 20:24:00,23.2,22.3,30.05,SE,128,0.0,0.0,97,0.00,,,0.00,WUHU216PEETBRO,2013-01-29 01:24:00,
2013-01-28 20:29:00,23.5,22.6,30.04,SE,128,0.0,0.0,97,0.00,,,0.00,WUHU216PEETBRO,2013-01-29 01:29:00,
2013-01-28 20:34:00,23.2,22.3,30.04,NNE,28,0.5,3.9,97,0.00,,,0.00,WUHU216PEETBRO,2013-01-29 01:34:00,
2013-01-28 20:39:00,22.8,21.9,30.04,NNE,25,0.0,3.9,96,0.00,,,0.00,WUHU216PEETBRO,2013-01-29 01:39:00,
2013-01-28 20:44:00,22.8,21.9,30.04,NNE,25,0.0,3.1,97,0.00,,,0.00,WUHU216PEETBRO,2013-01-29 01:44:00,
2013-01-28 20:49:00,23.2,22.3,30.04,NNE,25,0.0,0.0,97,0.00,,,0.00,WUHU216PEETBRO,2013-01-29 01:49:00,
2013-01-28 20:54:00,23.6,22.7,30.03,NNE,25,0.0,0.0,96,0.00,,,0.00,WUHU216PEETBRO,2013-01-29 01:54:00,
2013-01-28 20:59:00,23.4,22.5,30.04,NNE,25,0.0,0.0,97,0.00,,,0.00,WUHU216PEETBRO,2013-01-29 01:59:00,
2013-01-28 21:04:00,22.7,21.8,30.03,NNE,25,0.0,0.0,97,0.00,,,0.00,WUHU216PEETBRO,2013-01-29 02:04:00,
2013-01-28 21:09:00,23.1,22.1,30.03,NNE,25,0.0,0.0,96,0.00,,,0.00,WUHU216PEETBRO,2013-01-29 02:09:00,
2013-01-28 21:14:00,23.2,22.3,30.03,NNE,25,0.0,0.0,96,0.00,,,0.00,WUHU216PEETBRO,2013-01-29 02:14:00,
2013-01-28 21:19:00,22.7,21.8,30.03,NNE,25,0.0,0.0,97,0.00,,,0.00,WUHU216PEETBRO,2013-01-29 02:19:00,
2013-01-28 21:24:00,23.0,22.1,30.03,NNE,25,0.0,0.0,97,0.00,,,0.00,WUHU216PEETBRO,2013-01-29 02:24:00,
2013-01-28 21:29:00,22.8,21.9,30.02,NNE,25,0.0,0.0,97,0.00,,,0.00,WUHU216PEETBRO,2013-01-29 02:29:00,
2013-01-28 21:34:00,22.8,21.9,30.03,NNE,25,0.0,0.0,97,0.00,,,0.00,WUHU216PEETBRO,2013-01-29 02:34:00,
2013-01-28 21:39:00,23.2,22.3,30.02,NNE,30,2.8,3.7,96,0.00,,,0.00,WUHU216PEETBRO,2013-01-29 02:39:00,
2013-01-28 21:44:00,23.1,22.2,30.02,NNE,29,0.0,3.7,97,0.00,,,0.00,WUHU216PEETBRO,2013-01-29 02:44:00,
2013-01-28 21:49:00,23.1,22.2,30.02,NNE,29,0.0,3.4,97,0.00,,,0.00,WUHU216PEETBRO,2013-01-29 02:49:00,
2013-01-28 21:54:00,23.1,22.2,30.02,NNE,29,0.0,0.0,97,0.00,,,0.00,WUHU216PEETBRO,2013-01-29 02:54:00,
2013-01-28 21:59:00,23.2,22.3,30.02,NNE,29,0.0,0.0,97,0.00,,,0.00,WUHU216PEETBRO,2013-01-29 02:59:00,
2013-01-28 22:04:00,23.0,22.1,30.01,NNE,29,0.0,0.0,97,0.00,,,0.00,WUHU216PEETBRO,2013-01-29 03:04:00,
2013-01-28 22:09:00,23.1,22.2,30.01,NNE,29,0.0,0.0,97,0.00,,,0.00,WUHU216PEETBRO,2013-01-29 03:09:00,
2013-01-28 22:14:00,23.0,22.1,30.01,NNE,29,0.0,0.0,97,0.00,,,0.00,WUHU216PEETBRO,2013-01-29 03:14:00,
2013-01-28 22:19:00,22.9,22.0,30.01,NNE,29,0.0,0.0,97,0.00,,,0.00,WUHU216PEETBRO,2013-01-29 03:19:00,
2013-01-28 22:24:00,23.0,22.1,30.01,NNE,29,0.0,0.0,97,0.00,,,0.00,WUHU216PEETBRO,2013-01-29 03:24:00,
2013-01-28 22:29:00,23.1,22.2,30.01,NNE,29,0.0,0.0,97,0.00,,,0.00,WUHU216PEETBRO,2013-01-29 03:29:00,
2013-01-28 22:34:00,23.3,22.4,30.01,NNE,29,0.0,0.0,97,0.00,,,0.00,WUHU216PEETBRO,2013-01-29 03:34:00,
2013-01-28 22:39:00,23.4,22.6,30.01,NNE,29,0.0,0.0,97,0.00,,,0.00,WUHU216PEETBRO,2013-01-29 03:39:00,
2013-01-28 22:44:00,23.4,22.6,30.01,NNE,29,0.0,0.0,97,0.00,,,0.00,WUHU216PEETBRO,2013-01-29 03:44:00,
2013-01-28 22:49:00,23.1,22.3,30.01,NNE,29,0.0,0.0,97,0.00,,,0.00,WUHU216PEETBRO,2013-01-29 03:49:00,
2013-01-28 22:54:00,23.0,22.2,30.01,NNE,29,0.0,0.0,97,0.00,,,0.00,WUHU216PEETBRO,2013-01-29 03:54:00,
2013-01-28 22:59:00,23.1,22.3,30.01,NNE,29,0.0,0.0,97,0.00,,,0.00,WUHU216PEETBRO,2013-01-29 03:59:00,
2013-01-28 23:04:00,23.2,22.4,30.01,NNE,29,0.0,0.0,97,0.00,,,0.00,WUHU216PEETBRO,2013-01-29 04:04:00,
2013-01-28 23:09:00,23.3,22.5,30.00,NNE,29,0.0,0.0,97,0.00,,,0.00,WUHU216PEETBRO,2013-01-29 04:09:00,
2013-01-28 23:14:00,23.3,22.5,30.00,NNE,29,0.0,0.0,97,0.00,,,0.00,WUHU216PEETBRO,2013-01-29 04:14:00,
2013-01-28 23:19:00,23.3,22.5,30.01,NNE,29,0.0,0.0,97,0.00,,,0.00,WUHU216PEETBRO,2013-01-29 04:19:00,
2013-01-28 23:24:00,23.1,22.3,30.01,NNE,29,0.0,0.0,97,0.00,,,0.00,WUHU216PEETBRO,2013-01-29 04:24:00,
2013-01-28 23:29:00,23.4,22.6,30.01,NNE,29,0.0,0.0,97,0.00,,,0.00,WUHU216PEETBRO,2013-01-29 04:29:00,
2013-01-28 23:34:00,23.2,22.4,30.01,NNE,29,0.0,0.0,97,0.00,,,0.00,WUHU216PEETBRO,2013-01-29 04:34:00,
2013-01-28 23:39:00,23.5,22.7,30.01,NNE,29,0.0,0.0,97,0.00,,,0.00,WUHU216PEETBRO,2013-01-29 04:39:00,
2013-01-28 23:44:00,23.6,22.8,30.01,NNE,29,0.0,0.0,97,0.00,,,0.00,WUHU216PEETBRO,2013-01-29 04:44:00,
2013-01-28 23:49:00,23.4,22.6,30.01,NNE,29,0.0,0.0,97,0.00,,,0.00,WUHU216PEETBRO,2013-01-29 04:49:00,
2013-01-28 23:54:00,23.4,22.6,30.00,NNE,29,0.0,0.0,97,0.00,,,0.00,WUHU216PEETBRO,2013-01-29 04:54:00,
2013-01-28 23:59:00,23.6,22.8,30.01,NNE,29,0.0,0.0,97,0.00,,,0.00,WUHU216PEETBRO,2013-01-29 04:59:00,